Time;durP1;ratioP1;P1;durP2;ratioP2;P2;SDS_P1;SDS_P2;PMS_P1;PMS_P2;Temp;Humidity;BMP_temperature;BMP_pressure;BME280_temperature;BME280_humidity;BME280_pressure;Samples;Min_cycle;Max_cycle;Signal;HPM_P1;HPM_P2
2020/12/09 00:01:29;;;;;;;57.58;37.53;;;4.80;99.90;;;;;;5053919;28;20184;-48
2020/12/09 00:03:57;;;;;;;58.75;40.65;;;4.60;99.90;;;;;;5053542;28;20188;-48
2020/12/09 00:06:24;;;;;;;53.15;35.17;;;4.70;99.90;;;;;;5053615;28;20314;-48
2020/12/09 00:08:51;;;;;;;56.17;38.58;;;4.50;99.90;;;;;;5053850;28;20604;-48
2020/12/09 00:11:17;;;;;;;57.67;37.60;;;4.60;99.90;;;;;;5053876;28;20286;-48
2020/12/09 00:13:44;;;;;;;56.83;37.95;;;4.70;99.90;;;;;;5055218;28;20273;-48
2020/12/09 00:16:11;;;;;;;51.53;36.78;;;4.50;99.90;;;;;;5054096;28;20277;-48
2020/12/09 00:18:38;;;;;;;62.72;37.97;;;4.40;99.90;;;;;;5054251;28;20230;-48
2020/12/09 00:21:04;;;;;;;54.72;36.42;;;3.90;99.90;;;;;;5053320;28;20275;-48
2020/12/09 00:23:31;;;;;;;54.45;36.33;;;4.60;99.90;;;;;;5053103;28;20685;-49
2020/12/09 00:25:57;;;;;;;57.97;39.28;;;4.90;99.90;;;;;;5053532;28;20212;-48
2020/12/09 00:28:24;;;;;;;57.67;37.83;;;4.40;99.90;;;;;;5053517;28;20258;-48
2020/12/09 00:30:50;;;;;;;56.92;36.40;;;4.60;99.90;;;;;;5053342;28;20243;-47
2020/12/09 00:33:17;;;;;;;58.90;38.30;;;4.70;99.90;;;;;;5052927;28;20664;-47
2020/12/09 00:35:44;;;;;;;58.45;40.97;;;4.90;99.90;;;;;;5053268;28;20255;-48
2020/12/09 00:38:10;;;;;;;64.13;39.38;;;4.60;99.90;;;;;;5053347;28;20567;-47
2020/12/09 00:40:37;;;;;;;64.60;39.65;;;4.90;99.90;;;;;;5053071;28;20274;-48
2020/12/09 00:43:05;;;;;;;59.78;38.30;;;5.00;99.90;;;;;;5052843;28;20204;-47
2020/12/09 00:45:32;;;;;;;56.28;37.85;;;4.60;99.90;;;;;;5052581;28;20700;-48
2020/12/09 00:47:58;;;;;;;59.83;39.10;;;4.70;99.90;;;;;;5035005;28;20225;-48
2020/12/09 00:50:28;;;;;;;60.10;38.63;;;4.70;99.90;;;;;;5052887;28;20203;-48
2020/12/09 00:53:01;;;;;;;60.65;38.05;;;5.00;99.90;;;;;;5034943;28;20211;-48
2020/12/09 00:55:29;;;;;;;50.80;35.60;;;4.60;99.90;;;;;;5052788;28;20223;-48
2020/12/09 00:57:55;;;;;;;57.33;37.15;;;4.70;99.90;;;;;;5035039;28;20435;-48
2020/12/09 01:00:22;;;;;;;59.15;38.30;;;4.90;99.90;;;;;;5034861;28;20222;-48
2020/12/09 01:02:56;;;;;;;55.08;37.75;;;5.00;99.90;;;;;;5034687;28;20235;-48
2020/12/09 01:05:23;;;;;;;53.00;36.88;;;4.60;99.90;;;;;;5034591;28;20727;-48
2020/12/09 01:07:51;;;;;;;57.78;37.13;;;4.70;99.90;;;;;;5053160;28;20600;-48
2020/12/09 01:10:17;;;;;;;60.90;39.28;;;4.60;99.90;;;;;;5053097;28;20250;-48
2020/12/09 01:12:44;;;;;;;62.00;38.40;;;4.60;99.90;;;;;;5052896;28;20232;-48
2020/12/09 01:15:10;;;;;;;57.65;40.22;;;4.60;99.90;;;;;;5052741;28;20338;-47
2020/12/09 01:17:37;;;;;;;57.67;37.72;;;4.90;99.90;;;;;;5052395;28;20219;-48
2020/12/09 01:20:04;;;;;;;54.72;35.45;;;4.70;99.90;;;;;;5053206;28;20651;-47
2020/12/09 01:22:31;;;;;;;53.03;36.90;;;4.80;99.90;;;;;;5053459;28;20657;-48
2020/12/09 01:24:58;;;;;;;59.17;36.80;;;4.90;99.90;;;;;;5053861;28;20228;-48
2020/12/09 01:27:25;;;;;;;59.35;37.63;;;4.80;99.90;;;;;;5052694;28;20216;-49
2020/12/09 01:29:52;;;;;;;59.13;37.83;;;4.80;99.90;;;;;;5052198;28;20254;-48
2020/12/09 01:32:18;;;;;;;54.35;36.65;;;5.00;99.90;;;;;;5051935;28;20208;-48
2020/12/09 01:34:45;;;;;;;57.45;37.05;;;4.80;99.90;;;;;;5052129;28;20212;-48
2020/12/09 01:37:12;;;;;;;56.63;37.08;;;4.80;99.90;;;;;;5052181;28;20672;-49
2020/12/09 01:39:39;;;;;;;55.67;36.53;;;4.90;99.90;;;;;;5052160;28;20192;-48
2020/12/09 01:42:07;;;;;;;64.53;39.88;;;5.00;99.90;;;;;;5051975;28;20188;-48
2020/12/09 01:44:33;;;;;;;54.15;36.80;;;4.80;99.90;;;;;;5051716;28;20195;-48
2020/12/09 01:47:03;;;;;;;57.03;36.67;;;5.10;99.90;;;;;;5052486;28;20227;-47
2020/12/09 01:49:30;;;;;;;60.67;38.53;;;4.80;99.90;;;;;;5051013;28;20656;-47
2020/12/09 01:51:59;;;;;;;58.95;37.17;;;5.20;99.90;;;;;;5052168;28;20233;-47
2020/12/09 01:54:26;;;;;;;59.60;38.45;;;4.80;99.90;;;;;;5051566;28;20286;-48
2020/12/09 01:57:06;;;;;;;64.03;39.40;;;5.00;99.90;;;;;;5051895;28;20223;-48
2020/12/09 01:59:33;;;;;;;60.95;40.40;;;4.80;99.90;;;;;;5051683;28;20225;-48
2020/12/09 02:02:00;;;;;;;65.00;40.58;;;4.90;99.90;;;;;;5052073;28;20218;-48
2020/12/09 02:04:28;;;;;;;63.05;39.50;;;4.70;99.90;;;;;;5051798;28;20202;-48
2020/12/09 02:06:54;;;;;;;68.50;38.40;;;4.80;99.90;;;;;;5051856;28;20274;-47
2020/12/09 02:09:22;;;;;;;58.38;38.95;;;5.20;99.90;;;;;;5051846;28;20687;-48
2020/12/09 02:11:49;;;;;;;54.65;38.33;;;5.10;99.90;;;;;;5051856;28;20232;-48
2020/12/09 02:14:16;;;;;;;61.25;38.50;;;4.80;99.90;;;;;;5051328;28;20544;-48
2020/12/09 02:16:48;;;;;;;71.80;40.00;;;4.80;99.90;;;;;;5051680;28;20258;-48
2020/12/09 02:19:15;;;;;;;60.67;39.70;;;5.00;99.90;;;;;;5052248;28;20234;-48
2020/12/09 02:21:42;;;;;;;63.38;39.47;;;5.10;99.90;;;;;;5051640;28;20270;-48
2020/12/09 02:24:08;;;;;;;60.33;40.92;;;4.70;99.90;;;;;;5051328;28;20200;-48
2020/12/09 02:26:39;;;;;;;63.40;39.53;;;5.10;99.90;;;;;;5051463;28;20574;-47
2020/12/09 02:29:06;;;;;;;59.90;39.25;;;5.00;99.90;;;;;;5051597;28;20196;-48
2020/12/09 02:31:32;;;;;;;69.30;40.58;;;4.80;99.90;;;;;;5051510;28;20226;-48
2020/12/09 02:33:59;;;;;;;63.58;40.47;;;4.80;99.90;;;;;;5051231;28;20238;-48
2020/12/09 02:36:26;;;;;;;60.17;40.40;;;5.20;99.90;;;;;;5051700;28;20246;-48
2020/12/09 02:38:53;;;;;;;59.38;39.22;;;5.00;99.90;;;;;;5051617;28;20228;-48
2020/12/09 02:41:20;;;;;;;60.08;40.15;;;5.30;99.90;;;;;;5051656;28;20219;-47
2020/12/09 02:43:46;;;;;;;61.00;38.55;;;4.60;99.90;;;;;;5054546;28;20258;-47
2020/12/09 02:46:13;;;;;;;61.25;37.97;;;4.90;99.90;;;;;;5055448;28;20318;-48
2020/12/09 02:48:39;;;;;;;62.95;40.55;;;4.70;99.90;;;;;;5054629;28;20203;-48
2020/12/09 02:51:06;;;;;;;55.17;38.67;;;4.70;99.90;;;;;;5055288;28;20269;-47
2020/12/09 02:53:32;;;;;;;67.05;40.65;;;4.60;99.90;;;;;;5055093;28;20204;-48
2020/12/09 02:55:59;;;;;;;62.17;39.95;;;4.90;99.90;;;;;;5055109;28;20254;-48
2020/12/09 02:58:28;;;;;;;66.22;38.33;;;4.80;99.90;;;;;;5055068;28;20216;-48
2020/12/09 03:00:55;;;;;;;59.30;40.20;;;5.00;99.90;;;;;;5055363;28;20202;-48
2020/12/09 03:03:22;;;;;;;58.05;38.38;;;4.90;99.90;;;;;;5055649;28;20275;-49
2020/12/09 03:05:48;;;;;;;65.22;40.90;;;4.80;99.90;;;;;;5056720;28;20307;-47
2020/12/09 03:08:15;;;;;;;62.03;39.65;;;5.00;99.90;;;;;;5056300;28;20289;-48
2020/12/09 03:10:41;;;;;;;66.00;40.33;;;4.90;99.90;;;;;;5056409;28;20227;-48
2020/12/09 03:13:09;;;;;;;66.13;39.55;;;5.10;99.90;;;;;;5055769;28;20273;-48
2020/12/09 03:15:35;;;;;;;69.65;41.95;;;4.60;99.90;;;;;;5054604;28;20224;-48
2020/12/09 03:18:02;;;;;;;66.90;40.53;;;4.70;99.90;;;;;;5036971;28;20295;-48
2020/12/09 03:20:28;;;;;;;63.17;38.70;;;5.10;99.90;;;;;;5055303;28;20208;-47
2020/12/09 03:22:55;;;;;;;70.05;39.03;;;4.90;99.90;;;;;;5054539;28;20669;-48
2020/12/09 03:25:21;;;;;;;60.63;39.03;;;4.40;99.90;;;;;;5055048;28;20315;-48
2020/12/09 03:27:48;;;;;;;70.22;40.10;;;4.70;99.90;;;;;;5054942;28;20222;-48
2020/12/09 03:30:15;;;;;;;63.30;43.15;;;4.70;99.90;;;;;;5055130;28;20290;-48
2020/12/09 03:32:42;;;;;;;66.68;41.90;;;4.90;99.90;;;;;;5054758;28;20310;-47
2020/12/09 03:35:08;;;;;;;62.30;41.08;;;4.50;99.90;;;;;;5054355;28;20273;-48
2020/12/09 03:37:35;;;;;;;64.45;41.20;;;4.60;99.90;;;;;;5054107;28;20267;-47
2020/12/09 03:40:01;;;;;;;66.30;40.60;;;4.70;99.90;;;;;;5054846;28;20192;-48
2020/12/09 03:42:28;;;;;;;71.20;41.80;;;4.50;99.90;;;;;;5054861;28;20192;-48
2020/12/09 03:44:54;;;;;;;67.88;44.92;;;4.70;99.90;;;;;;5054913;28;20212;-48
2020/12/09 03:47:21;;;;;;;66.63;40.80;;;5.00;99.90;;;;;;5054970;28;20476;-48
2020/12/09 03:49:48;;;;;;;65.05;40.67;;;4.70;99.90;;;;;;5054658;28;20611;-48
2020/12/09 03:52:14;;;;;;;63.90;41.33;;;4.80;99.90;;;;;;5054468;28;20235;-48
2020/12/09 03:54:41;;;;;;;62.50;40.17;;;4.70;99.90;;;;;;5054563;28;20696;-47
2020/12/09 03:57:07;;;;;;;65.43;41.00;;;4.80;99.90;;;;;;5054611;28;20193;-47
2020/12/09 03:59:34;;;;;;;63.28;41.67;;;4.80;99.90;;;;;;5053353;28;20300;-47
2020/12/09 04:02:00;;;;;;;63.45;40.75;;;4.60;99.90;;;;;;5072506;28;20191;-47
2020/12/09 04:04:28;;;;;;;67.75;42.95;;;4.70;99.90;;;;;;5074152;28;20282;-46
2020/12/09 04:06:54;;;;;;;68.22;41.70;;;4.90;99.90;;;;;;5074520;28;20215;-47
2020/12/09 04:09:20;;;;;;;58.30;40.17;;;5.00;99.90;;;;;;5074190;28;20283;-47
2020/12/09 04:11:48;;;;;;;65.43;40.08;;;4.90;99.90;;;;;;5074042;28;20302;-46
2020/12/09 04:14:15;;;;;;;60.83;40.42;;;4.90;99.90;;;;;;5074725;28;20287;-46
2020/12/09 04:16:42;;;;;;;66.78;40.83;;;4.90;99.90;;;;;;5075904;28;20254;-46
2020/12/09 04:19:08;;;;;;;65.82;41.78;;;4.90;99.90;;;;;;5075720;28;20611;-46
2020/12/09 04:21:35;;;;;;;60.85;42.88;;;4.70;99.90;;;;;;5074960;28;20249;-47
2020/12/09 04:24:02;;;;;;;64.65;41.00;;;5.20;99.90;;;;;;5073395;28;20188;-47
2020/12/09 04:26:28;;;;;;;65.18;43.72;;;5.00;99.90;;;;;;5074455;28;20219;-46
2020/12/09 04:28:55;;;;;;;63.72;41.83;;;4.90;99.90;;;;;;5074522;28;20607;-46
2020/12/09 04:31:21;;;;;;;67.20;42.40;;;5.00;99.90;;;;;;5060379;28;20629;-47
2020/12/09 04:33:53;;;;;;;62.25;41.70;;;5.10;99.90;;;;;;5054600;28;20188;-47
2020/12/09 04:36:21;;;;;;;61.45;41.63;;;5.10;99.90;;;;;;5054370;28;20295;-47
2020/12/09 04:38:49;;;;;;;61.65;42.95;;;5.00;99.90;;;;;;5054030;28;20279;-47
2020/12/09 04:41:16;;;;;;;61.05;43.35;;;5.00;99.90;;;;;;5054087;28;20196;-47
2020/12/09 04:43:42;;;;;;;69.78;43.50;;;5.00;99.90;;;;;;5053599;28;20242;-48
2020/12/09 04:46:09;;;;;;;72.35;43.35;;;5.00;99.90;;;;;;5053199;28;20302;-48
2020/12/09 04:48:39;;;;;;;66.00;42.17;;;5.00;99.90;;;;;;5053453;28;20265;-46
2020/12/09 04:51:30;;;;;;;62.97;42.00;;;5.10;99.90;;;;;;5053182;28;20202;-48
2020/12/09 04:53:59;;;;;;;68.30;42.88;;;5.30;99.90;;;;;;5053044;28;20511;-48
2020/12/09 04:56:30;;;;;;;65.70;42.72;;;5.20;99.90;;;;;;5053056;28;20270;-46
2020/12/09 04:58:58;;;;;;;73.53;44.67;;;5.00;99.90;;;;;;5053066;28;20204;-48
2020/12/09 05:01:33;;;;;;;70.78;44.42;;;5.00;99.90;;;;;;5053296;28;20206;-47
2020/12/09 05:04:12;;;;;;;78.35;46.90;;;5.20;99.90;;;;;;5052753;28;20196;-47
2020/12/09 05:06:39;;;;;;;69.47;43.80;;;4.50;99.90;;;;;;5052655;28;20220;-47
2020/12/09 05:09:12;;;;;;;69.05;45.10;;;5.00;99.90;;;;;;5052597;28;20188;-47
2020/12/09 05:11:41;;;;;;;74.22;45.50;;;5.00;99.90;;;;;;5052617;28;20247;-48
2020/12/09 05:14:12;;;;;;;73.15;46.38;;;4.90;99.90;;;;;;5052818;28;20290;-47
2020/12/09 05:16:46;;;;;;;79.72;47.50;;;5.00;99.90;;;;;;5052704;28;20215;-46
2020/12/09 05:19:15;;;;;;;78.00;45.03;;;5.10;99.90;;;;;;5035031;28;20796;-47
2020/12/09 05:21:48;;;;;;;70.20;44.72;;;5.20;99.90;;;;;;5052745;28;20525;-48
2020/12/09 05:24:18;;;;;;;70.45;44.60;;;5.00;99.90;;;;;;5052746;28;20279;-46
2020/12/09 05:26:44;;;;;;;71.45;47.10;;;4.70;99.90;;;;;;5052789;28;20715;-47
2020/12/09 05:29:13;;;;;;;74.20;46.83;;;4.30;99.90;;;;;;5052681;28;20196;-48
2020/12/09 05:31:42;;;;;;;72.45;47.20;;;5.20;99.90;;;;;;5052101;28;20212;-48
2020/12/09 05:34:24;;;;;;;81.45;45.97;;;5.10;99.90;;;;;;5052471;28;20255;-48
2020/12/09 05:36:52;;;;;;;74.78;46.10;;;4.90;99.90;;;;;;5053608;28;20192;-47
2020/12/09 05:39:20;;;;;;;73.75;48.67;;;5.20;99.90;;;;;;5053754;28;20254;-46
2020/12/09 05:41:46;;;;;;;82.90;48.47;;;5.00;99.90;;;;;;5053458;28;20235;-47
2020/12/09 05:44:13;;;;;;;63.22;44.42;;;4.90;99.90;;;;;;5072594;28;20198;-47
2020/12/09 05:46:57;;;;;;;79.68;47.13;;;5.00;99.90;;;;;;5073967;28;20237;-47
2020/12/09 05:49:25;;;;;;;75.82;48.25;;;4.90;99.90;;;;;;5074100;28;20686;-47
2020/12/09 05:52:13;;;;;;;84.35;50.30;;;5.00;99.90;;;;;;5073962;28;20269;-48
2020/12/09 05:54:42;;;;;;;75.00;48.15;;;4.90;99.90;;;;;;5073883;28;20206;-48
2020/12/09 05:57:10;;;;;;;68.60;44.92;;;4.80;99.90;;;;;;5055491;28;20195;-47
2020/12/09 05:59:39;;;;;;;79.03;48.00;;;5.20;99.90;;;;;;5055774;28;20226;-46
2020/12/09 06:02:07;;;;;;;79.80;48.78;;;5.00;99.90;;;;;;5071639;28;20542;-47
2020/12/09 06:04:53;;;;;;;76.78;47.95;;;4.90;99.90;;;;;;5072625;28;20202;-48
2020/12/09 06:07:21;;;;;;;78.85;46.85;;;5.10;99.90;;;;;;5071616;28;20215;-48
2020/12/09 06:10:06;;;;;;;79.00;46.88;;;5.30;99.90;;;;;;5072007;28;20260;-46
2020/12/09 06:12:51;;;;;;;78.82;48.53;;;4.70;99.90;;;;;;5052643;28;20218;-46
2020/12/09 06:15:18;;;;;;;74.68;47.65;;;5.20;99.90;;;;;;5051622;28;20244;-46
2020/12/09 06:17:45;;;;;;;79.60;48.42;;;5.20;99.90;;;;;;5050650;28;20199;-47
2020/12/09 06:20:12;;;;;;;68.53;47.55;;;5.00;99.90;;;;;;5051273;28;20200;-46
2020/12/09 06:22:38;;;;;;;74.15;45.88;;;5.00;99.90;;;;;;5051421;28;20203;-47
2020/12/09 06:25:07;;;;;;;74.63;48.53;;;5.00;99.90;;;;;;5052147;28;20274;-47
2020/12/09 06:27:35;;;;;;;69.72;44.47;;;5.20;99.90;;;;;;5051943;28;20245;-47
2020/12/09 06:30:03;;;;;;;77.40;46.72;;;4.90;99.90;;;;;;5051341;28;20552;-46
2020/12/09 06:32:44;;;;;;;72.45;47.22;;;5.10;99.90;;;;;;5050993;28;20230;-45
2020/12/09 06:35:11;;;;;;;72.13;46.17;;;4.90;99.90;;;;;;5051718;28;20218;-48
2020/12/09 06:37:37;;;;;;;71.65;46.80;;;5.10;99.90;;;;;;5051464;28;20196;-48
2020/12/09 06:40:10;;;;;;;66.35;44.83;;;5.20;99.90;;;;;;5051876;28;20242;-48
2020/12/09 06:42:36;;;;;;;71.57;44.17;;;5.00;99.90;;;;;;5050488;28;20609;-48
2020/12/09 06:45:04;;;;;;;76.60;50.35;;;5.20;99.90;;;;;;5051141;28;20273;-48
2020/12/09 06:47:30;;;;;;;75.18;46.45;;;5.20;99.90;;;;;;5051164;28;20200;-48
2020/12/09 06:49:57;;;;;;;70.60;45.63;;;5.10;99.90;;;;;;5051212;28;20211;-47
2020/12/09 06:52:32;;;;;;;70.75;44.88;;;4.90;99.90;;;;;;5050931;28;20692;-47
2020/12/09 06:54:59;;;;;;;66.90;43.97;;;5.40;99.90;;;;;;5050952;28;20253;-46
2020/12/09 06:57:29;;;;;;;72.30;49.35;;;5.30;99.90;;;;;;5051672;28;20216;-46
2020/12/09 07:00:18;;;;;;;69.95;44.45;;;5.30;99.90;;;;;;5050962;28;20207;-47
2020/12/09 07:02:47;;;;;;;73.35;46.38;;;5.10;99.90;;;;;;5051044;28;20664;-47
2020/12/09 07:05:15;;;;;;;75.97;46.88;;;5.10;99.90;;;;;;5052647;28;20710;-47
2020/12/09 07:07:43;;;;;;;75.95;48.95;;;5.10;99.90;;;;;;5051704;28;20684;-47
2020/12/09 07:10:25;;;;;;;76.28;47.30;;;5.00;99.90;;;;;;5051171;28;20311;-47
2020/12/09 07:13:04;;;;;;;73.28;45.88;;;5.00;99.90;;;;;;5051518;28;20684;-47
2020/12/09 07:15:31;;;;;;;73.53;46.60;;;5.00;99.90;;;;;;5051284;28;20211;-47
2020/12/09 07:17:58;;;;;;;78.07;46.83;;;5.30;99.90;;;;;;5051241;28;20214;-49
2020/12/09 07:20:25;;;;;;;67.03;44.40;;;4.90;99.90;;;;;;5032845;28;20668;-47
2020/12/09 07:22:51;;;;;;;74.05;47.75;;;5.10;99.90;;;;;;5050658;28;20200;-47
2020/12/09 07:25:18;;;;;;;70.97;45.70;;;4.90;99.90;;;;;;5050867;28;20212;-47
2020/12/09 07:27:46;;;;;;;73.88;45.45;;;5.10;99.90;;;;;;5051211;28;20385;-47
2020/12/09 07:30:15;;;;;;;72.47;45.72;;;5.00;99.90;;;;;;5054557;28;20730;-48
2020/12/09 07:32:41;;;;;;;73.65;46.80;;;5.40;99.90;;;;;;5054308;28;20220;-47
2020/12/09 07:35:09;;;;;;;66.35;45.22;;;5.00;99.90;;;;;;5054344;28;20247;-47
2020/12/09 07:37:39;;;;;;;69.57;46.95;;;5.30;99.90;;;;;;5055405;28;20204;-47
2020/12/09 07:40:19;;;;;;;73.57;47.03;;;5.30;99.90;;;;;;5055716;28;20184;-46
2020/12/09 07:42:46;;;;;;;71.28;45.15;;;5.10;99.90;;;;;;5060686;28;20199;-46
2020/12/09 07:45:16;;;;;;;69.18;46.05;;;5.20;99.90;;;;;;5073833;28;20591;-47
2020/12/09 07:47:43;;;;;;;72.72;47.30;;;5.20;99.90;;;;;;5073962;28;20195;-47
2020/12/09 07:50:11;;;;;;;72.85;46.70;;;5.00;99.90;;;;;;5073881;28;20187;-48
2020/12/09 07:52:39;;;;;;;72.65;46.33;;;5.20;99.90;;;;;;5055387;28;20643;-47
2020/12/09 07:55:08;;;;;;;69.93;45.83;;;5.00;99.90;;;;;;5055874;28;20719;-48
2020/12/09 07:57:36;;;;;;;74.43;47.60;;;5.30;99.90;;;;;;5074005;28;20199;-48
2020/12/09 08:00:09;;;;;;;71.15;46.30;;;5.20;99.90;;;;;;5073650;28;20241;-47
2020/12/09 08:02:40;;;;;;;73.00;45.40;;;4.90;99.90;;;;;;5073185;28;20175;-47
2020/12/09 08:05:13;;;;;;;71.40;46.47;;;5.00;99.90;;;;;;5055360;28;20300;-48
2020/12/09 08:07:52;;;;;;;73.35;45.28;;;5.20;99.90;;;;;;5055630;28;20656;-47
2020/12/09 08:10:22;;;;;;;77.85;48.42;;;5.60;99.90;;;;;;5075154;28;20191;-47
2020/12/09 08:12:49;;;;;;;69.03;47.35;;;5.40;99.90;;;;;;5069036;28;20683;-47
2020/12/09 08:15:15;;;;;;;65.20;45.45;;;4.60;99.90;;;;;;5054414;28;20211;-47
2020/12/09 08:17:48;;;;;;;62.13;45.50;;;5.30;99.90;;;;;;5035538;28;20220;-47
2020/12/09 08:20:15;;;;;;;79.78;45.08;;;5.40;99.90;;;;;;5053567;28;20227;-49
2020/12/09 08:22:55;;;;;;;70.70;46.38;;;5.50;99.90;;;;;;5053269;28;20227;-48
2020/12/09 08:25:22;;;;;;;67.68;44.22;;;5.30;99.90;;;;;;5035178;28;20311;-47
2020/12/09 08:27:50;;;;;;;73.57;45.80;;;5.40;99.90;;;;;;5035463;28;20207;-47
2020/12/09 08:30:25;;;;;;;70.20;45.70;;;5.20;99.90;;;;;;5053759;28;20191;-47
2020/12/09 08:33:02;;;;;;;74.72;46.67;;;5.30;99.90;;;;;;5053227;28;20223;-47
2020/12/09 08:35:30;;;;;;;67.45;44.95;;;5.50;99.90;;;;;;5053235;28;20212;-48
2020/12/09 08:37:57;;;;;;;73.72;46.92;;;5.40;99.90;;;;;;5053303;28;20363;-47
2020/12/09 08:40:24;;;;;;;73.20;45.38;;;5.50;99.90;;;;;;5052278;28;20207;-48
2020/12/09 08:42:55;;;;;;;73.00;47.08;;;4.90;99.90;;;;;;5053005;28;20192;-47
2020/12/09 08:45:22;;;;;;;71.38;45.08;;;5.40;99.90;;;;;;5033422;28;20213;-47
2020/12/09 08:47:49;;;;;;;69.95;43.97;;;5.30;99.90;;;;;;5033318;28;20304;-47
2020/12/09 08:50:16;;;;;;;64.93;45.28;;;5.50;99.90;;;;;;5033028;28;20274;-48
2020/12/09 08:52:43;;;;;;;63.65;43.53;;;5.30;99.90;;;;;;5033356;28;20584;-47
2020/12/09 08:55:10;;;;;;;66.63;43.65;;;5.60;99.90;;;;;;5033016;28;20216;-47
2020/12/09 08:57:37;;;;;;;72.70;44.28;;;5.40;99.90;;;;;;5032916;28;20270;-47
2020/12/09 09:00:06;;;;;;;69.50;45.17;;;5.30;99.90;;;;;;5032730;28;20224;-47
2020/12/09 09:02:32;;;;;;;78.88;46.67;;;5.50;99.90;;;;;;5032170;28;20618;-47
2020/12/09 09:04:59;;;;;;;69.07;44.45;;;5.40;99.90;;;;;;5015318;28;20227;-48
2020/12/09 09:07:26;;;;;;;74.88;44.75;;;5.40;99.90;;;;;;5033653;28;20208;-49
2020/12/09 09:09:53;;;;;;;76.57;46.45;;;5.10;99.90;;;;;;5042931;28;20227;-47
2020/12/09 09:12:20;;;;;;;63.92;42.47;;;5.20;99.90;;;;;;5051506;28;20577;-47
2020/12/09 09:14:47;;;;;;;68.80;44.88;;;5.20;99.90;;;;;;5053187;28;20601;-48
2020/12/09 09:17:13;;;;;;;70.90;44.33;;;5.40;99.90;;;;;;5034100;28;20203;-48
2020/12/09 09:19:40;;;;;;;67.22;45.22;;;5.50;99.90;;;;;;5051954;28;20619;-48
2020/12/09 09:22:06;;;;;;;66.72;44.00;;;5.50;99.90;;;;;;5052351;28;20575;-49
2020/12/09 09:24:34;;;;;;;72.15;45.47;;;5.20;99.90;;;;;;5051789;28;20243;-48
2020/12/09 09:27:00;;;;;;;64.03;43.08;;;5.30;99.90;;;;;;5052165;28;20247;-48
2020/12/09 09:29:28;;;;;;;62.95;43.10;;;5.50;99.90;;;;;;5051948;28;20209;-48
2020/12/09 09:31:55;;;;;;;63.90;44.00;;;5.20;99.90;;;;;;5051454;28;20265;-47
2020/12/09 09:34:21;;;;;;;68.47;44.50;;;5.20;99.90;;;;;;5051775;28;20192;-47
2020/12/09 09:36:48;;;;;;;64.55;43.38;;;5.60;99.90;;;;;;5050320;28;20277;-46
2020/12/09 09:39:14;;;;;;;72.38;44.58;;;5.50;99.90;;;;;;5052138;28;20192;-46
2020/12/09 09:41:42;;;;;;;65.38;45.55;;;5.60;99.90;;;;;;5052241;28;20191;-47
2020/12/09 09:44:08;;;;;;;68.38;44.33;;;5.30;99.90;;;;;;5051600;28;20235;-47
2020/12/09 09:46:35;;;;;;;70.22;44.95;;;5.20;99.90;;;;;;5051213;28;20220;-47
2020/12/09 09:49:01;;;;;;;61.72;43.72;;;5.60;99.90;;;;;;5051987;28;20191;-47
2020/12/09 09:51:28;;;;;;;64.53;43.72;;;5.50;99.90;;;;;;5053753;28;20347;-47
2020/12/09 09:53:55;;;;;;;61.17;44.00;;;5.50;99.90;;;;;;5051555;28;20224;-47
2020/12/09 09:56:21;;;;;;;67.70;44.10;;;5.50;99.90;;;;;;5052383;28;20235;-47
2020/12/09 09:58:49;;;;;;;73.88;46.22;;;5.70;99.90;;;;;;5054000;28;20265;-47
2020/12/09 10:01:15;;;;;;;71.00;45.88;;;5.40;99.90;;;;;;5051668;28;20246;-47
2020/12/09 10:03:42;;;;;;;65.90;43.72;;;5.70;99.90;;;;;;5051658;28;20238;-47
2020/12/09 10:06:09;;;;;;;72.70;41.30;;;5.80;99.90;;;;;;5050828;28;20716;-48
2020/12/09 10:08:36;;;;;;;62.72;42.88;;;5.80;99.90;;;;;;5051416;28;20200;-46
2020/12/09 10:11:04;;;;;;;61.28;42.45;;;6.00;99.90;;;;;;5050875;28;20688;-47
2020/12/09 10:13:30;;;;;;;65.80;42.38;;;5.70;99.90;;;;;;5032543;28;20515;-46
2020/12/09 10:15:58;;;;;;;68.13;43.30;;;5.80;99.90;;;;;;5051766;28;20223;-48
2020/12/09 10:18:25;;;;;;;75.80;46.38;;;4.90;99.90;;;;;;5051571;28;20200;-46
2020/12/09 10:20:55;;;;;;;63.28;42.13;;;5.80;99.90;;;;;;5052054;28;20200;-48
2020/12/09 10:23:23;;;;;;;61.03;41.70;;;6.00;99.90;;;;;;5053586;28;20226;-48
2020/12/09 10:25:52;;;;;;;63.15;42.33;;;6.10;99.90;;;;;;5050691;28;20233;-47
2020/12/09 10:28:25;;;;;;;57.65;39.90;;;5.90;99.90;;;;;;5049835;28;20207;-47
2020/12/09 10:30:52;;;;;;;62.75;44.08;;;5.70;99.90;;;;;;5032887;28;20211;-48
2020/12/09 10:33:20;;;;;;;66.75;40.83;;;5.80;99.90;;;;;;5050569;28;20662;-46
2020/12/09 10:35:46;;;;;;;64.82;41.53;;;6.00;99.90;;;;;;5050133;28;20611;-47
2020/12/09 10:38:13;;;;;;;65.47;42.42;;;5.90;99.90;;;;;;5050009;28;20567;-48
2020/12/09 10:40:39;;;;;;;68.40;40.65;;;6.00;99.90;;;;;;5033209;28;20694;-48
2020/12/09 10:43:06;;;;;;;68.28;42.70;;;5.90;99.90;;;;;;5050198;28;20277;-46
2020/12/09 10:45:32;;;;;;;63.95;40.10;;;5.80;99.90;;;;;;5051043;28;20216;-46
2020/12/09 10:47:59;;;;;;;64.57;42.28;;;5.90;99.90;;;;;;5051072;28;20200;-46
2020/12/09 10:50:26;;;;;;;68.47;42.83;;;5.80;99.90;;;;;;5051046;28;20200;-48
2020/12/09 10:52:53;;;;;;;56.22;40.38;;;5.80;99.90;;;;;;5050346;28;20283;-47
2020/12/09 10:55:20;;;;;;;65.88;42.42;;;6.00;99.90;;;;;;5033517;28;20230;-46
2020/12/09 10:57:47;;;;;;;63.00;41.53;;;5.80;99.90;;;;;;5050780;28;20200;-47
2020/12/09 11:00:13;;;;;;;63.55;42.45;;;5.80;99.90;;;;;;5050918;28;20545;-47
2020/12/09 11:02:40;;;;;;;59.63;40.55;;;5.80;99.90;;;;;;5050150;28;20227;-47
2020/12/09 11:05:06;;;;;;;62.70;41.75;;;6.10;99.90;;;;;;5054141;28;20228;-47
2020/12/09 11:07:34;;;;;;;68.10;44.25;;;5.80;99.90;;;;;;5054658;28;20579;-47
2020/12/09 11:10:00;;;;;;;66.05;41.35;;;5.80;99.90;;;;;;5054635;28;20192;-46
2020/12/09 11:12:27;;;;;;;61.55;40.47;;;6.00;99.90;;;;;;5052126;28;20208;-47
2020/12/09 11:14:54;;;;;;;63.97;41.50;;;5.90;99.90;;;;;;5054202;28;20741;-48
2020/12/09 11:17:20;;;;;;;60.28;39.08;;;6.20;99.90;;;;;;5054036;28;20219;-48
2020/12/09 11:19:47;;;;;;;61.92;42.22;;;6.10;99.90;;;;;;5054371;28;20192;-47
2020/12/09 11:22:14;;;;;;;61.90;40.10;;;5.80;99.90;;;;;;5035372;28;20196;-47
2020/12/09 11:24:41;;;;;;;56.75;40.45;;;5.60;99.90;;;;;;5053004;28;20200;-47
2020/12/09 11:27:08;;;;;;;55.97;39.05;;;5.90;99.90;;;;;;5054810;28;20207;-47
2020/12/09 11:29:34;;;;;;;64.72;40.22;;;6.30;99.90;;;;;;5038097;28;20192;-47
2020/12/09 11:32:01;;;;;;;61.00;41.20;;;6.20;99.90;;;;;;5060991;28;20206;-47
2020/12/09 11:34:28;;;;;;;63.90;40.72;;;6.30;99.90;;;;;;5074626;28;20198;-48
2020/12/09 11:36:58;;;;;;;60.72;40.10;;;6.20;99.90;;;;;;5064588;28;20227;-48
2020/12/09 11:39:25;;;;;;;56.92;40.00;;;6.00;99.90;;;;;;5054436;28;20204;-48
2020/12/09 11:41:53;;;;;;;70.03;42.00;;;6.10;99.90;;;;;;5054075;28;20199;-47
2020/12/09 11:44:22;;;;;;;62.88;42.03;;;6.20;99.90;;;;;;5053769;28;20649;-47
2020/12/09 11:46:49;;;;;;;66.47;41.45;;;6.30;99.90;;;;;;5053873;28;20259;-48
2020/12/09 11:49:15;;;;;;;63.25;40.28;;;6.00;99.90;;;;;;5053664;28;20204;-48
2020/12/09 11:51:42;;;;;;;62.63;41.05;;;6.10;99.90;;;;;;5054051;28;20195;-47
2020/12/09 11:54:09;;;;;;;64.25;42.65;;;6.10;99.90;;;;;;5052815;28;20381;-48
2020/12/09 11:56:35;;;;;;;59.67;41.33;;;6.00;99.90;;;;;;5054241;28;20216;-48
2020/12/09 11:59:03;;;;;;;65.40;42.13;;;6.00;99.90;;;;;;5052180;28;20196;-48
2020/12/09 12:01:29;;;;;;;60.95;41.10;;;5.80;99.90;;;;;;5043368;28;20242;-48
2020/12/09 12:03:56;;;;;;;71.10;43.50;;;6.10;99.90;;;;;;5052445;28;20208;-48
2020/12/09 12:06:24;;;;;;;65.13;42.20;;;5.30;99.90;;;;;;5052419;28;20236;-48
2020/12/09 12:08:52;;;;;;;64.47;42.13;;;6.00;99.90;;;;;;5053374;28;20687;-46
2020/12/09 12:11:20;;;;;;;62.15;41.17;;;5.80;99.90;;;;;;5052983;28;20200;-47
2020/12/09 12:13:46;;;;;;;65.57;41.67;;;5.70;99.90;;;;;;5032218;28;20665;-47
2020/12/09 12:16:16;;;;;;;65.60;42.13;;;5.80;99.90;;;;;;5053238;28;20550;-52
2020/12/09 12:18:43;;;;;;;61.78;41.72;;;5.70;99.90;;;;;;5073503;28;20245;-46
2020/12/09 12:21:12;;;;;;;61.55;39.95;;;5.90;99.90;;;;;;5060262;28;20196;-48
2020/12/09 12:23:39;;;;;;;66.78;41.63;;;5.90;99.90;;;;;;5052527;28;20269;-47
2020/12/09 12:26:05;;;;;;;64.25;42.45;;;5.90;99.90;;;;;;5052751;28;20263;-47
2020/12/09 12:28:32;;;;;;;72.65;43.05;;;6.10;99.90;;;;;;5052933;28;20290;-47
2020/12/09 12:30:58;;;;;;;66.95;43.20;;;5.90;99.90;;;;;;5052765;28;20200;-48
2020/12/09 12:33:26;;;;;;;62.60;40.63;;;5.40;99.90;;;;;;5052532;28;20235;-46
2020/12/09 12:35:52;;;;;;;63.22;42.15;;;6.30;99.90;;;;;;5053525;28;20215;-47
2020/12/09 12:38:19;;;;;;;58.78;40.15;;;5.90;99.90;;;;;;5051337;28;20196;-46
2020/12/09 12:40:45;;;;;;;67.78;42.72;;;6.00;99.90;;;;;;5053233;28;20208;-48